sensor_id;sensor_type;location;lat;lon;timestamp;temperature;humidity
37240;DHT22;23130;48.760;9.178;2023-05-07T00:01:48;13.70;99.90
37240;DHT22;23130;48.760;9.178;2023-05-07T00:04:13;13.60;99.90
37240;DHT22;23130;48.760;9.178;2023-05-07T00:06:39;13.50;99.90
37240;DHT22;23130;48.760;9.178;2023-05-07T00:09:06;13.40;99.90
37240;DHT22;23130;48.760;9.178;2023-05-07T00:11:32;13.30;99.90
37240;DHT22;23130;48.760;9.178;2023-05-07T00:13:57;13.30;99.90
37240;DHT22;23130;48.760;9.178;2023-05-07T00:16:23;13.20;99.90
37240;DHT22;23130;48.760;9.178;2023-05-07T00:18:48;13.10;99.90
37240;DHT22;23130;48.760;9.178;2023-05-07T00:21:14;13.10;99.90
37240;DHT22;23130;48.760;9.178;2023-05-07T00:23:39;13.00;99.90
37240;DHT22;23130;48.760;9.178;2023-05-07T00:26:05;13.00;99.90
37240;DHT22;23130;48.760;9.178;2023-05-07T00:28:30;13.00;99.90
37240;DHT22;23130;48.760;9.178;2023-05-07T00:30:56;13.00;99.90
37240;DHT22;23130;48.760;9.178;2023-05-07T00:33:22;12.90;99.90
37240;DHT22;23130;48.760;9.178;2023-05-07T00:35:48;12.90;99.90
37240;DHT22;23130;48.760;9.178;2023-05-07T00:38:13;12.80;99.90
37240;DHT22;23130;48.760;9.178;2023-05-07T00:40:39;12.80;99.90
37240;DHT22;23130;48.760;9.178;2023-05-07T00:43:05;12.80;99.90
37240;DHT22;23130;48.760;9.178;2023-05-07T00:45:30;12.70;99.90
37240;DHT22;23130;48.760;9.178;2023-05-07T00:48:00;12.80;99.90
37240;DHT22;23130;48.760;9.178;2023-05-07T00:50:27;12.70;99.90
37240;DHT22;23130;48.760;9.178;2023-05-07T00:52:54;12.70;99.90
37240;DHT22;23130;48.760;9.178;2023-05-07T00:55:21;12.60;99.90
37240;DHT22;23130;48.760;9.178;2023-05-07T00:57:46;12.60;99.90
37240;DHT22;23130;48.760;9.178;2023-05-07T01:00:12;12.60;99.90
37240;DHT22;23130;48.760;9.178;2023-05-07T01:02:39;12.60;99.90
37240;DHT22;23130;48.760;9.178;2023-05-07T01:05:06;12.60;99.90
37240;DHT22;23130;48.760;9.178;2023-05-07T01:07:33;12.60;99.90
37240;DHT22;23130;48.760;9.178;2023-05-07T01:10:00;12.50;99.90
37240;DHT22;23130;48.760;9.178;2023-05-07T01:12:26;12.60;99.90
37240;DHT22;23130;48.760;9.178;2023-05-07T01:14:53;12.50;99.90
37240;DHT22;23130;48.760;9.178;2023-05-07T01:17:18;12.50;99.90
37240;DHT22;23130;48.760;9.178;2023-05-07T01:19:44;12.50;99.90
37240;DHT22;23130;48.760;9.178;2023-05-07T01:22:10;12.50;99.90
37240;DHT22;23130;48.760;9.178;2023-05-07T01:24:41;12.50;99.90
37240;DHT22;23130;48.760;9.178;2023-05-07T01:27:07;12.50;99.90
37240;DHT22;23130;48.760;9.178;2023-05-07T01:29:32;12.50;99.90
37240;DHT22;23130;48.760;9.178;2023-05-07T01:32:00;12.50;99.90
37240;DHT22;23130;48.760;9.178;2023-05-07T01:34:28;12.50;99.90
37240;DHT22;23130;48.760;9.178;2023-05-07T01:36:56;12.50;99.90
37240;DHT22;23130;48.760;9.178;2023-05-07T01:39:27;12.50;99.90
37240;DHT22;23130;48.760;9.178;2023-05-07T01:41:55;12.40;99.90
37240;DHT22;23130;48.760;9.178;2023-05-07T01:44:22;12.40;99.90
37240;DHT22;23130;48.760;9.178;2023-05-07T01:46:48;12.30;99.90
37240;DHT22;23130;48.760;9.178;2023-05-07T01:49:15;12.30;99.90
37240;DHT22;23130;48.760;9.178;2023-05-07T01:51:42;12.20;99.90
37240;DHT22;23130;48.760;9.178;2023-05-07T01:54:08;12.20;99.90
37240;DHT22;23130;48.760;9.178;2023-05-07T01:56:34;12.10;99.90
37240;DHT22;23130;48.760;9.178;2023-05-07T01:59:00;12.10;99.90
37240;DHT22;23130;48.760;9.178;2023-05-07T02:01:26;12.10;99.90
37240;DHT22;23130;48.760;9.178;2023-05-07T02:03:51;12.10;99.90
37240;DHT22;23130;48.760;9.178;2023-05-07T02:06:17;12.10;99.90
37240;DHT22;23130;48.760;9.178;2023-05-07T02:08:42;12.20;99.90
37240;DHT22;23130;48.760;9.178;2023-05-07T02:11:08;12.20;99.90
37240;DHT22;23130;48.760;9.178;2023-05-07T02:13:34;12.20;99.90
37240;DHT22;23130;48.760;9.178;2023-05-07T02:16:00;12.10;99.90
37240;DHT22;23130;48.760;9.178;2023-05-07T02:18:26;12.10;99.90
37240;DHT22;23130;48.760;9.178;2023-05-07T02:20:52;12.10;99.90
37240;DHT22;23130;48.760;9.178;2023-05-07T02:23:17;12.10;99.90
37240;DHT22;23130;48.760;9.178;2023-05-07T02:25:43;12.10;99.90
37240;DHT22;23130;48.760;9.178;2023-05-07T02:28:08;12.10;99.90
37240;DHT22;23130;48.760;9.178;2023-05-07T02:30:34;12.10;99.90
37240;DHT22;23130;48.760;9.178;2023-05-07T02:33:00;12.20;99.90
37240;DHT22;23130;48.760;9.178;2023-05-07T02:35:25;12.20;99.90
37240;DHT22;23130;48.760;9.178;2023-05-07T02:37:51;12.20;99.90
37240;DHT22;23130;48.760;9.178;2023-05-07T02:40:16;12.20;99.90
37240;DHT22;23130;48.760;9.178;2023-05-07T02:42:42;12.10;99.90
37240;DHT22;23130;48.760;9.178;2023-05-07T02:45:08;12.10;99.90
37240;DHT22;23130;48.760;9.178;2023-05-07T02:47:34;12.00;99.90
37240;DHT22;23130;48.760;9.178;2023-05-07T02:49:59;12.00;99.90
37240;DHT22;23130;48.760;9.178;2023-05-07T02:52:25;12.00;99.90
37240;DHT22;23130;48.760;9.178;2023-05-07T02:54:53;12.00;99.90
37240;DHT22;23130;48.760;9.178;2023-05-07T02:57:18;11.90;99.90
37240;DHT22;23130;48.760;9.178;2023-05-07T02:59:44;11.80;99.90
37240;DHT22;23130;48.760;9.178;2023-05-07T03:02:09;11.70;99.90
37240;DHT22;23130;48.760;9.178;2023-05-07T03:04:35;11.70;99.90
37240;DHT22;23130;48.760;9.178;2023-05-07T03:07:01;11.70;99.90
37240;DHT22;23130;48.760;9.178;2023-05-07T03:09:26;11.70;99.90
37240;DHT22;23130;48.760;9.178;2023-05-07T03:11:52;11.70;99.90
37240;DHT22;23130;48.760;9.178;2023-05-07T03:14:18;11.70;99.90
37240;DHT22;23130;48.760;9.178;2023-05-07T03:16:43;11.70;99.90
37240;DHT22;23130;48.760;9.178;2023-05-07T03:19:09;11.70;99.90
37240;DHT22;23130;48.760;9.178;2023-05-07T03:21:34;11.70;99.90
37240;DHT22;23130;48.760;9.178;2023-05-07T03:24:00;11.60;99.90
37240;DHT22;23130;48.760;9.178;2023-05-07T03:26:26;11.50;99.90
37240;DHT22;23130;48.760;9.178;2023-05-07T03:28:51;11.50;99.90
37240;DHT22;23130;48.760;9.178;2023-05-07T03:31:17;11.40;99.90
37240;DHT22;23130;48.760;9.178;2023-05-07T03:33:53;11.30;99.90
37240;DHT22;23130;48.760;9.178;2023-05-07T03:36:20;11.30;99.90
37240;DHT22;23130;48.760;9.178;2023-05-07T03:38:46;11.20;99.90
37240;DHT22;23130;48.760;9.178;2023-05-07T03:41:12;11.10;99.90
37240;DHT22;23130;48.760;9.178;2023-05-07T03:43:37;11.10;99.90
37240;DHT22;23130;48.760;9.178;2023-05-07T03:46:03;11.10;99.90
37240;DHT22;23130;48.760;9.178;2023-05-07T03:48:28;11.10;99.90
37240;DHT22;23130;48.760;9.178;2023-05-07T03:50:54;11.20;99.90
37240;DHT22;23130;48.760;9.178;2023-05-07T03:53:19;11.20;99.90
37240;DHT22;23130;48.760;9.178;2023-05-07T03:55:45;11.30;99.90
37240;DHT22;23130;48.760;9.178;2023-05-07T03:58:10;11.40;99.90
37240;DHT22;23130;48.760;9.178;2023-05-07T04:00:36;11.40;99.90
37240;DHT22;23130;48.760;9.178;2023-05-07T04:03:04;11.40;99.90
37240;DHT22;23130;48.760;9.178;2023-05-07T04:05:30;11.40;99.90
37240;DHT22;23130;48.760;9.178;2023-05-07T04:07:58;11.40;99.90
37240;DHT22;23130;48.760;9.178;2023-05-07T04:10:24;11.40;99.90
37240;DHT22;23130;48.760;9.178;2023-05-07T04:12:50;11.40;99.90
37240;DHT22;23130;48.760;9.178;2023-05-07T04:15:15;11.40;99.90
37240;DHT22;23130;48.760;9.178;2023-05-07T04:17:41;11.50;99.90
37240;DHT22;23130;48.760;9.178;2023-05-07T04:20:09;11.60;99.90
37240;DHT22;23130;48.760;9.178;2023-05-07T04:22:35;11.60;99.90
37240;DHT22;23130;48.760;9.178;2023-05-07T04:25:01;11.70;99.90
37240;DHT22;23130;48.760;9.178;2023-05-07T04:27:27;11.80;99.90
37240;DHT22;23130;48.760;9.178;2023-05-07T04:29:53;11.90;99.90
37240;DHT22;23130;48.760;9.178;2023-05-07T04:32:21;12.10;99.90
37240;DHT22;23130;48.760;9.178;2023-05-07T04:34:46;12.20;99.90
37240;DHT22;23130;48.760;9.178;2023-05-07T04:37:12;12.40;99.90
37240;DHT22;23130;48.760;9.178;2023-05-07T04:39:37;12.50;99.90
37240;DHT22;23130;48.760;9.178;2023-05-07T04:42:03;12.60;99.90
37240;DHT22;23130;48.760;9.178;2023-05-07T04:44:29;12.70;99.90
37240;DHT22;23130;48.760;9.178;2023-05-07T04:46:56;12.80;99.90
37240;DHT22;23130;48.760;9.178;2023-05-07T04:49:22;12.90;99.90
37240;DHT22;23130;48.760;9.178;2023-05-07T04:51:47;12.90;99.90
37240;DHT22;23130;48.760;9.178;2023-05-07T04:54:13;13.00;99.90
37240;DHT22;23130;48.760;9.178;2023-05-07T04:56:39;13.00;99.90
37240;DHT22;23130;48.760;9.178;2023-05-07T04:59:04;13.00;99.90
37240;DHT22;23130;48.760;9.178;2023-05-07T05:01:31;13.00;99.90
37240;DHT22;23130;48.760;9.178;2023-05-07T05:03:56;13.00;99.90
37240;DHT22;23130;48.760;9.178;2023-05-07T05:06:22;13.00;99.90
37240;DHT22;23130;48.760;9.178;2023-05-07T05:08:47;13.00;99.90
37240;DHT22;23130;48.760;9.178;2023-05-07T05:11:13;13.10;99.90
37240;DHT22;23130;48.760;9.178;2023-05-07T05:13:38;13.30;99.90
37240;DHT22;23130;48.760;9.178;2023-05-07T05:16:04;13.50;99.90
37240;DHT22;23130;48.760;9.178;2023-05-07T05:18:30;13.70;99.90
37240;DHT22;23130;48.760;9.178;2023-05-07T05:20:56;13.80;99.90
37240;DHT22;23130;48.760;9.178;2023-05-07T05:23:21;13.90;99.90
37240;DHT22;23130;48.760;9.178;2023-05-07T05:25:47;14.60;99.90
37240;DHT22;23130;48.760;9.178;2023-05-07T05:28:12;16.00;99.90
37240;DHT22;23130;48.760;9.178;2023-05-07T05:30:39;17.60;99.90
37240;DHT22;23130;48.760;9.178;2023-05-07T05:33:04;19.40;99.90
37240;DHT22;23130;48.760;9.178;2023-05-07T05:35:30;20.70;99.90
37240;DHT22;23130;48.760;9.178;2023-05-07T05:37:56;21.20;99.90
37240;DHT22;23130;48.760;9.178;2023-05-07T05:40:21;21.40;99.90
37240;DHT22;23130;48.760;9.178;2023-05-07T05:42:47;22.30;99.90
37240;DHT22;23130;48.760;9.178;2023-05-07T05:45:12;22.30;99.90
37240;DHT22;23130;48.760;9.178;2023-05-07T05:47:38;23.60;99.90
37240;DHT22;23130;48.760;9.178;2023-05-07T05:50:05;24.40;99.90
37240;DHT22;23130;48.760;9.178;2023-05-07T05:52:31;24.60;99.90
37240;DHT22;23130;48.760;9.178;2023-05-07T05:54:57;25.20;99.70
37240;DHT22;23130;48.760;9.178;2023-05-07T05:57:22;25.30;98.90
37240;DHT22;23130;48.760;9.178;2023-05-07T05:59:48;25.60;98.50
37240;DHT22;23130;48.760;9.178;2023-05-07T06:02:13;25.60;97.80
37240;DHT22;23130;48.760;9.178;2023-05-07T06:04:39;26.00;97.40
37240;DHT22;23130;48.760;9.178;2023-05-07T06:07:05;25.90;97.00
37240;DHT22;23130;48.760;9.178;2023-05-07T06:09:31;25.60;97.10
37240;DHT22;23130;48.760;9.178;2023-05-07T06:11:56;25.40;97.30
37240;DHT22;23130;48.760;9.178;2023-05-07T06:14:22;25.70;97.60
37240;DHT22;23130;48.760;9.178;2023-05-07T06:16:48;26.70;96.50
37240;DHT22;23130;48.760;9.178;2023-05-07T06:19:13;26.50;95.60
37240;DHT22;23130;48.760;9.178;2023-05-07T06:21:39;26.20;96.10
37240;DHT22;23130;48.760;9.178;2023-05-07T06:24:05;26.40;95.60
37240;DHT22;23130;48.760;9.178;2023-05-07T06:26:31;25.60;95.90
37240;DHT22;23130;48.760;9.178;2023-05-07T06:28:57;25.50;96.10
37240;DHT22;23130;48.760;9.178;2023-05-07T06:31:22;24.50;97.20
37240;DHT22;23130;48.760;9.178;2023-05-07T06:33:49;23.30;98.30
37240;DHT22;23130;48.760;9.178;2023-05-07T06:36:15;22.60;99.50
37240;DHT22;23130;48.760;9.178;2023-05-07T06:38:40;21.90;99.90
37240;DHT22;23130;48.760;9.178;2023-05-07T06:41:06;21.20;99.90
37240;DHT22;23130;48.760;9.178;2023-05-07T06:43:32;20.40;99.90
37240;DHT22;23130;48.760;9.178;2023-05-07T06:45:58;20.50;99.90
37240;DHT22;23130;48.760;9.178;2023-05-07T06:48:23;20.50;99.90
37240;DHT22;23130;48.760;9.178;2023-05-07T06:50:49;20.70;99.90
37240;DHT22;23130;48.760;9.178;2023-05-07T06:53:15;20.70;99.90
37240;DHT22;23130;48.760;9.178;2023-05-07T06:55:41;21.30;99.90
37240;DHT22;23130;48.760;9.178;2023-05-07T06:58:07;22.90;99.90
37240;DHT22;23130;48.760;9.178;2023-05-07T07:00:32;24.00;99.90
37240;DHT22;23130;48.760;9.178;2023-05-07T07:02:58;24.50;99.20
37240;DHT22;23130;48.760;9.178;2023-05-07T07:05:24;25.70;98.60
37240;DHT22;23130;48.760;9.178;2023-05-07T07:07:50;25.40;97.80
37240;DHT22;23130;48.760;9.178;2023-05-07T07:10:21;26.00;96.60
37240;DHT22;23130;48.760;9.178;2023-05-07T07:12:48;26.30;96.90
37240;DHT22;23130;48.760;9.178;2023-05-07T07:15:14;26.70;96.00
37240;DHT22;23130;48.760;9.178;2023-05-07T07:17:40;26.80;95.60
37240;DHT22;23130;48.760;9.178;2023-05-07T07:20:06;26.40;96.20
37240;DHT22;23130;48.760;9.178;2023-05-07T07:22:32;26.40;95.80
37240;DHT22;23130;48.760;9.178;2023-05-07T07:24:57;26.10;96.00
37240;DHT22;23130;48.760;9.178;2023-05-07T07:27:23;26.40;95.90
37240;DHT22;23130;48.760;9.178;2023-05-07T07:29:49;26.80;95.40
37240;DHT22;23130;48.760;9.178;2023-05-07T07:32:14;27.20;95.20
37240;DHT22;23130;48.760;9.178;2023-05-07T07:34:40;27.30;94.70
37240;DHT22;23130;48.760;9.178;2023-05-07T07:37:05;28.20;94.50
37240;DHT22;23130;48.760;9.178;2023-05-07T07:39:34;28.30;93.60
37240;DHT22;23130;48.760;9.178;2023-05-07T07:42:00;28.10;93.90
37240;DHT22;23130;48.760;9.178;2023-05-07T07:44:27;28.50;93.50
37240;DHT22;23130;48.760;9.178;2023-05-07T07:46:53;28.50;93.10
37240;DHT22;23130;48.760;9.178;2023-05-07T07:49:19;28.50;93.30
37240;DHT22;23130;48.760;9.178;2023-05-07T07:51:44;28.60;92.70
37240;DHT22;23130;48.760;9.178;2023-05-07T07:54:10;28.10;93.20
37240;DHT22;23130;48.760;9.178;2023-05-07T07:56:36;27.60;93.70
37240;DHT22;23130;48.760;9.178;2023-05-07T07:59:02;27.30;94.70
37240;DHT22;23130;48.760;9.178;2023-05-07T08:01:30;26.90;95.40
37240;DHT22;23130;48.760;9.178;2023-05-07T08:03:55;27.30;94.30
37240;DHT22;23130;48.760;9.178;2023-05-07T08:06:23;27.40;94.20
37240;DHT22;23130;48.760;9.178;2023-05-07T08:08:48;27.40;93.80
37240;DHT22;23130;48.760;9.178;2023-05-07T08:11:15;26.90;94.40
37240;DHT22;23130;48.760;9.178;2023-05-07T08:13:41;26.90;94.90
37240;DHT22;23130;48.760;9.178;2023-05-07T08:16:06;26.30;95.30
37240;DHT22;23130;48.760;9.178;2023-05-07T08:18:32;26.10;95.60
37240;DHT22;23130;48.760;9.178;2023-05-07T08:20:57;25.60;95.70
37240;DHT22;23130;48.760;9.178;2023-05-07T08:23:23;25.20;97.70
37240;DHT22;23130;48.760;9.178;2023-05-07T08:25:51;24.80;97.00
37240;DHT22;23130;48.760;9.178;2023-05-07T08:28:17;24.30;97.70
37240;DHT22;23130;48.760;9.178;2023-05-07T08:30:43;24.20;98.20
37240;DHT22;23130;48.760;9.178;2023-05-07T08:33:09;24.20;98.30
37240;DHT22;23130;48.760;9.178;2023-05-07T08:35:35;24.20;98.40
37240;DHT22;23130;48.760;9.178;2023-05-07T08:38:00;24.40;99.00
37240;DHT22;23130;48.760;9.178;2023-05-07T08:40:26;24.50;98.50
37240;DHT22;23130;48.760;9.178;2023-05-07T08:42:53;24.50;98.60
37240;DHT22;23130;48.760;9.178;2023-05-07T08:45:20;24.60;98.30
37240;DHT22;23130;48.760;9.178;2023-05-07T08:47:58;24.60;99.40
37240;DHT22;23130;48.760;9.178;2023-05-07T08:50:24;24.60;99.10
37240;DHT22;23130;48.760;9.178;2023-05-07T08:52:50;24.50;98.20
37240;DHT22;23130;48.760;9.178;2023-05-07T08:55:16;24.40;97.80
37240;DHT22;23130;48.760;9.178;2023-05-07T08:57:42;24.10;99.00
37240;DHT22;23130;48.760;9.178;2023-05-07T09:00:08;24.10;99.90
37240;DHT22;23130;48.760;9.178;2023-05-07T09:02:35;24.20;99.90
37240;DHT22;23130;48.760;9.178;2023-05-07T09:05:01;23.70;99.70
37240;DHT22;23130;48.760;9.178;2023-05-07T09:07:27;23.70;99.60
37240;DHT22;23130;48.760;9.178;2023-05-07T09:09:53;23.50;99.90
37240;DHT22;23130;48.760;9.178;2023-05-07T09:12:24;23.50;99.90
37240;DHT22;23130;48.760;9.178;2023-05-07T09:14:49;23.30;99.90
37240;DHT22;23130;48.760;9.178;2023-05-07T09:17:16;23.30;99.90
37240;DHT22;23130;48.760;9.178;2023-05-07T09:19:46;23.10;99.90
37240;DHT22;23130;48.760;9.178;2023-05-07T09:22:12;22.90;99.90
37240;DHT22;23130;48.760;9.178;2023-05-07T09:24:38;23.10;99.90
37240;DHT22;23130;48.760;9.178;2023-05-07T09:27:05;23.30;99.90
37240;DHT22;23130;48.760;9.178;2023-05-07T09:29:31;23.60;99.90
37240;DHT22;23130;48.760;9.178;2023-05-07T09:32:07;23.80;99.90
37240;DHT22;23130;48.760;9.178;2023-05-07T09:34:33;23.80;98.90
37240;DHT22;23130;48.760;9.178;2023-05-07T09:37:01;23.70;99.40
37240;DHT22;23130;48.760;9.178;2023-05-07T09:39:45;23.60;99.50
37240;DHT22;23130;48.760;9.178;2023-05-07T09:42:11;23.80;99.80
37240;DHT22;23130;48.760;9.178;2023-05-07T09:44:37;23.70;98.80
37240;DHT22;23130;48.760;9.178;2023-05-07T09:47:07;23.70;99.90
37240;DHT22;23130;48.760;9.178;2023-05-07T09:49:37;23.60;99.40
37240;DHT22;23130;48.760;9.178;2023-05-07T09:52:05;23.40;99.90
37240;DHT22;23130;48.760;9.178;2023-05-07T09:54:34;23.30;99.90
37240;DHT22;23130;48.760;9.178;2023-05-07T09:57:01;23.50;99.90
37240;DHT22;23130;48.760;9.178;2023-05-07T09:59:32;23.60;99.90
37240;DHT22;23130;48.760;9.178;2023-05-07T10:01:59;23.80;99.90
37240;DHT22;23130;48.760;9.178;2023-05-07T10:04:28;24.00;99.90
37240;DHT22;23130;48.760;9.178;2023-05-07T10:06:54;24.30;99.90
37240;DHT22;23130;48.760;9.178;2023-05-07T10:09:21;24.50;99.90
37240;DHT22;23130;48.760;9.178;2023-05-07T10:11:49;24.50;99.90
37240;DHT22;23130;48.760;9.178;2023-05-07T10:14:14;24.50;98.90
37240;DHT22;23130;48.760;9.178;2023-05-07T10:16:41;24.40;98.80
37240;DHT22;23130;48.760;9.178;2023-05-07T10:19:07;24.50;98.90
37240;DHT22;23130;48.760;9.178;2023-05-07T10:21:36;24.80;99.30
37240;DHT22;23130;48.760;9.178;2023-05-07T10:24:09;25.10;98.10
37240;DHT22;23130;48.760;9.178;2023-05-07T10:26:42;25.20;98.10
37240;DHT22;23130;48.760;9.178;2023-05-07T10:34:42;25.00;98.40
37240;DHT22;23130;48.760;9.178;2023-05-07T10:37:09;25.00;99.60
37240;DHT22;23130;48.760;9.178;2023-05-07T10:39:35;25.20;98.70
37240;DHT22;23130;48.760;9.178;2023-05-07T10:42:12;25.60;98.20
37240;DHT22;23130;48.760;9.178;2023-05-07T10:44:38;26.30;97.90
37240;DHT22;23130;48.760;9.178;2023-05-07T10:47:12;26.40;97.60
37240;DHT22;23130;48.760;9.178;2023-05-07T10:52:20;26.40;97.40
37240;DHT22;23130;48.760;9.178;2023-05-07T10:54:46;26.70;96.10
37240;DHT22;23130;48.760;9.178;2023-05-07T10:57:34;26.70;96.70
37240;DHT22;23130;48.760;9.178;2023-05-07T11:07:57;26.60;98.00
37240;DHT22;23130;48.760;9.178;2023-05-07T11:10:23;26.80;97.10
37240;DHT22;23130;48.760;9.178;2023-05-07T11:13:08;27.10;96.90
37240;DHT22;23130;48.760;9.178;2023-05-07T11:15:39;27.00;97.00
37240;DHT22;23130;48.760;9.178;2023-05-07T11:18:06;27.10;96.10
37240;DHT22;23130;48.760;9.178;2023-05-07T11:26:08;26.30;96.10
37240;DHT22;23130;48.760;9.178;2023-05-07T11:28:42;26.10;95.10
37240;DHT22;23130;48.760;9.178;2023-05-07T11:31:08;25.90;95.80
37240;DHT22;23130;48.760;9.178;2023-05-07T11:33:35;25.70;95.40
37240;DHT22;23130;48.760;9.178;2023-05-07T11:36:02;25.90;96.70
37240;DHT22;23130;48.760;9.178;2023-05-07T11:38:38;25.90;95.30
37240;DHT22;23130;48.760;9.178;2023-05-07T11:41:04;26.00;95.80
37240;DHT22;23130;48.760;9.178;2023-05-07T11:43:32;25.70;98.10
37240;DHT22;23130;48.760;9.178;2023-05-07T11:46:07;25.50;95.70
37240;DHT22;23130;48.760;9.178;2023-05-07T11:48:33;25.30;95.50
37240;DHT22;23130;48.760;9.178;2023-05-07T11:51:03;24.80;97.00
37240;DHT22;23130;48.760;9.178;2023-05-07T11:53:39;24.70;96.40
37240;DHT22;23130;48.760;9.178;2023-05-07T11:56:09;24.40;96.40
37240;DHT22;23130;48.760;9.178;2023-05-07T11:58:35;24.20;97.50
37240;DHT22;23130;48.760;9.178;2023-05-07T12:01:01;23.90;97.20
37240;DHT22;23130;48.760;9.178;2023-05-07T12:03:27;23.70;96.80
37240;DHT22;23130;48.760;9.178;2023-05-07T12:05:53;23.50;97.60
37240;DHT22;23130;48.760;9.178;2023-05-07T12:08:20;23.30;98.00
37240;DHT22;23130;48.760;9.178;2023-05-07T12:10:47;23.00;98.60
37240;DHT22;23130;48.760;9.178;2023-05-07T12:13:22;22.80;99.90
37240;DHT22;23130;48.760;9.178;2023-05-07T12:15:56;22.40;99.90
37240;DHT22;23130;48.760;9.178;2023-05-07T12:18:23;22.00;99.90
37240;DHT22;23130;48.760;9.178;2023-05-07T12:20:49;21.60;99.90
37240;DHT22;23130;48.760;9.178;2023-05-07T12:23:15;21.20;98.20
37240;DHT22;23130;48.760;9.178;2023-05-07T12:25:42;20.90;97.10
37240;DHT22;23130;48.760;9.178;2023-05-07T12:28:16;20.60;98.20
37240;DHT22;23130;48.760;9.178;2023-05-07T12:30:46;20.40;99.90
37240;DHT22;23130;48.760;9.178;2023-05-07T12:33:15;20.10;99.90
37240;DHT22;23130;48.760;9.178;2023-05-07T12:35:42;19.60;99.90
37240;DHT22;23130;48.760;9.178;2023-05-07T12:38:15;18.90;99.90
37240;DHT22;23130;48.760;9.178;2023-05-07T12:40:53;18.00;99.90
37240;DHT22;23130;48.760;9.178;2023-05-07T12:43:25;16.90;99.90
37240;DHT22;23130;48.760;9.178;2023-05-07T12:45:53;15.50;99.90
37240;DHT22;23130;48.760;9.178;2023-05-07T12:48:19;14.40;99.90
37240;DHT22;23130;48.760;9.178;2023-05-07T12:50:48;13.80;99.90
37240;DHT22;23130;48.760;9.178;2023-05-07T12:53:14;13.40;99.90
37240;DHT22;23130;48.760;9.178;2023-05-07T12:58:07;13.00;99.90
37240;DHT22;23130;48.760;9.178;2023-05-07T13:00:34;13.00;99.90
37240;DHT22;23130;48.760;9.178;2023-05-07T13:03:00;12.80;99.90
37240;DHT22;23130;48.760;9.178;2023-05-07T13:05:25;12.80;99.90
37240;DHT22;23130;48.760;9.178;2023-05-07T13:07:54;12.80;99.90
37240;DHT22;23130;48.760;9.178;2023-05-07T13:10:24;12.90;99.90
37240;DHT22;23130;48.760;9.178;2023-05-07T13:12:50;12.90;99.90
37240;DHT22;23130;48.760;9.178;2023-05-07T13:15:16;13.10;99.90
37240;DHT22;23130;48.760;9.178;2023-05-07T13:17:42;13.10;99.90
37240;DHT22;23130;48.760;9.178;2023-05-07T13:20:09;13.20;99.90
37240;DHT22;23130;48.760;9.178;2023-05-07T13:22:35;13.20;99.90
37240;DHT22;23130;48.760;9.178;2023-05-07T13:25:01;13.20;99.90
37240;DHT22;23130;48.760;9.178;2023-05-07T13:27:26;13.20;99.90
37240;DHT22;23130;48.760;9.178;2023-05-07T13:29:52;13.10;99.90
37240;DHT22;23130;48.760;9.178;2023-05-07T13:32:17;13.10;99.90
37240;DHT22;23130;48.760;9.178;2023-05-07T13:34:43;13.10;99.90
37240;DHT22;23130;48.760;9.178;2023-05-07T13:37:08;13.20;99.90
37240;DHT22;23130;48.760;9.178;2023-05-07T13:39:34;13.30;99.90
37240;DHT22;23130;48.760;9.178;2023-05-07T13:42:00;13.30;99.90
37240;DHT22;23130;48.760;9.178;2023-05-07T13:44:26;13.30;99.90
37240;DHT22;23130;48.760;9.178;2023-05-07T13:46:51;13.20;99.90
37240;DHT22;23130;48.760;9.178;2023-05-07T13:49:17;13.30;99.90
37240;DHT22;23130;48.760;9.178;2023-05-07T13:51:42;13.30;99.90
37240;DHT22;23130;48.760;9.178;2023-05-07T13:54:08;13.30;99.90
37240;DHT22;23130;48.760;9.178;2023-05-07T13:56:34;13.40;99.90
37240;DHT22;23130;48.760;9.178;2023-05-07T13:58:59;13.40;99.90
37240;DHT22;23130;48.760;9.178;2023-05-07T14:01:25;13.50;99.90
37240;DHT22;23130;48.760;9.178;2023-05-07T14:03:50;13.70;99.90
37240;DHT22;23130;48.760;9.178;2023-05-07T14:06:16;13.70;99.90
37240;DHT22;23130;48.760;9.178;2023-05-07T14:08:41;13.90;99.90
37240;DHT22;23130;48.760;9.178;2023-05-07T14:11:07;14.00;99.90
37240;DHT22;23130;48.760;9.178;2023-05-07T14:13:33;14.10;99.90
37240;DHT22;23130;48.760;9.178;2023-05-07T14:15:59;14.20;99.90
37240;DHT22;23130;48.760;9.178;2023-05-07T14:18:26;14.30;99.90
37240;DHT22;23130;48.760;9.178;2023-05-07T14:20:52;14.30;99.90
37240;DHT22;23130;48.760;9.178;2023-05-07T14:23:17;14.30;99.90
37240;DHT22;23130;48.760;9.178;2023-05-07T14:25:45;14.30;99.90
37240;DHT22;23130;48.760;9.178;2023-05-07T14:28:13;14.30;99.90
37240;DHT22;23130;48.760;9.178;2023-05-07T14:30:38;14.30;99.90
37240;DHT22;23130;48.760;9.178;2023-05-07T14:33:04;14.30;99.90
37240;DHT22;23130;48.760;9.178;2023-05-07T14:35:30;14.30;99.90
37240;DHT22;23130;48.760;9.178;2023-05-07T14:37:58;14.30;99.90
37240;DHT22;23130;48.760;9.178;2023-05-07T14:40:23;14.40;99.90
37240;DHT22;23130;48.760;9.178;2023-05-07T14:42:49;14.40;99.90
37240;DHT22;23130;48.760;9.178;2023-05-07T14:45:14;14.40;99.90
37240;DHT22;23130;48.760;9.178;2023-05-07T14:47:40;14.40;99.90
37240;DHT22;23130;48.760;9.178;2023-05-07T14:50:06;14.50;99.90
37240;DHT22;23130;48.760;9.178;2023-05-07T14:52:31;14.50;99.90
37240;DHT22;23130;48.760;9.178;2023-05-07T14:54:58;14.60;99.90
37240;DHT22;23130;48.760;9.178;2023-05-07T14:57:23;14.60;99.90
37240;DHT22;23130;48.760;9.178;2023-05-07T14:59:50;14.60;99.90
37240;DHT22;23130;48.760;9.178;2023-05-07T15:02:16;14.60;99.90
37240;DHT22;23130;48.760;9.178;2023-05-07T15:04:42;14.60;99.90
37240;DHT22;23130;48.760;9.178;2023-05-07T15:07:14;14.70;99.90
37240;DHT22;23130;48.760;9.178;2023-05-07T15:09:41;14.70;99.90
37240;DHT22;23130;48.760;9.178;2023-05-07T15:12:07;14.60;99.90
37240;DHT22;23130;48.760;9.178;2023-05-07T15:14:33;14.60;99.90
37240;DHT22;23130;48.760;9.178;2023-05-07T15:16:58;14.60;99.90
37240;DHT22;23130;48.760;9.178;2023-05-07T15:19:24;14.50;99.90
37240;DHT22;23130;48.760;9.178;2023-05-07T15:21:57;14.60;99.90
37240;DHT22;23130;48.760;9.178;2023-05-07T15:24:23;14.60;99.90
37240;DHT22;23130;48.760;9.178;2023-05-07T15:26:48;14.60;99.90
37240;DHT22;23130;48.760;9.178;2023-05-07T15:29:14;14.70;99.90
37240;DHT22;23130;48.760;9.178;2023-05-07T15:31:40;14.80;99.90
37240;DHT22;23130;48.760;9.178;2023-05-07T15:34:05;14.90;99.90
37240;DHT22;23130;48.760;9.178;2023-05-07T15:36:31;15.00;99.90
37240;DHT22;23130;48.760;9.178;2023-05-07T15:38:57;15.10;99.90
37240;DHT22;23130;48.760;9.178;2023-05-07T15:41:24;15.20;99.90
37240;DHT22;23130;48.760;9.178;2023-05-07T15:43:51;15.20;99.90
37240;DHT22;23130;48.760;9.178;2023-05-07T15:46:21;15.20;99.90
37240;DHT22;23130;48.760;9.178;2023-05-07T15:48:48;15.20;99.90
37240;DHT22;23130;48.760;9.178;2023-05-07T15:51:15;15.20;99.90